Perg, Austria
Current Conditions -  °F | °C
As of 6:20 AM on Wednesday 28 Jan 2015 (Local Time) from LOWL Reporting Station
Broken Clouds Broken Clouds  
Wind Chill: 27°   Ceiling: 6000
Heat Index: 34°   Visibility: 6mi
Dew Point: 32°   Wind: 8mph
Humidity: 93%   Direction: 240°WSW
Pressure: 30.09"   Gusts: NA
Location:  48.25°N, 14.62°E
Report Text: LOWL 280420Z 24007KT 9999 SCT012 BKN060 01/M00 Q1019 R08/19//95 NOSIG
Loading
Personal Weather Stations






























Interactive Weather Map New forecast layout! Learn more

10-Day Weather Forecast

Advertisements
Track Severe Weather on mobile